Time;durP1;ratioP1;P1;durP2;ratioP2;P2;SDS_P1;SDS_P2;PMS_P1;PMS_P2;Temp;Humidity;BMP_temperature;BMP_pressure;BME280_temperature;BME280_humidity;BME280_pressure;Samples;Min_cycle;Max_cycle;Signal;HPM_P1;HPM_P2
2021/04/10 00:00:51;;;;;;;28.95;13.25;;;;;;;5.75;41.84;98433.38;4977694;28;20022;-74
2021/04/10 00:03:17;;;;;;;29.90;12.70;;;;;;;5.66;41.99;98425.72;4982652;28;20022;-75
2021/04/10 00:05:42;;;;;;;30.40;13.27;;;;;;;5.67;41.76;98432.00;4983259;28;20482;-75
2021/04/10 00:08:07;;;;;;;26.45;12.85;;;;;;;5.61;41.66;98422.97;4984374;28;20076;-75
2021/04/10 00:10:33;;;;;;;26.88;12.82;;;;;;;5.54;42.14;98430.56;4983488;28;20018;-75
2021/04/10 00:12:59;;;;;;;25.67;12.48;;;;;;;5.47;42.10;98430.78;4970764;28;20084;-75
2021/04/10 00:15:27;;;;;;;21.23;9.68;;;;;;;5.40;42.61;98429.41;4982067;28;20054;-75
2021/04/10 00:17:53;;;;;;;23.85;10.45;;;;;;;5.35;42.87;98425.56;4974469;28;20022;-75
2021/04/10 00:20:20;;;;;;;24.23;10.77;;;;;;;5.30;42.53;98425.53;4974877;28;20014;-75
2021/04/10 00:22:46;;;;;;;36.50;15.07;;;;;;;5.27;43.29;98420.63;4980790;28;20052;-75
2021/04/10 00:25:13;;;;;;;30.13;12.60;;;;;;;5.25;42.69;98427.41;4981893;28;20079;-75
2021/04/10 00:27:39;;;;;;;31.75;12.65;;;;;;;5.20;43.19;98417.28;4981779;28;20030;-76
2021/04/10 00:30:07;;;;;;;26.35;11.68;;;;;;;5.15;43.92;98422.69;4983665;28;20037;-77
2021/04/10 00:32:32;;;;;;;34.20;11.30;;;;;;;5.06;43.91;98408.78;4983607;28;20034;-76
2021/04/10 00:34:58;;;;;;;25.25;10.95;;;;;;;5.01;44.33;98415.00;4983652;28;20061;-76
2021/04/10 00:37:23;;;;;;;23.63;10.23;;;;;;;4.97;44.56;98418.50;4979383;28;20037;-76
2021/04/10 00:39:48;;;;;;;22.65;10.07;;;;;;;4.90;43.67;98416.00;4969261;28;20033;-77
2021/04/10 00:42:14;;;;;;;21.48;9.88;;;;;;;4.85;44.09;98414.09;4971317;28;20129;-77
2021/04/10 00:44:39;;;;;;;22.33;9.90;;;;;;;4.81;44.97;98414.84;4984745;28;20413;-77
2021/04/10 00:47:05;;;;;;;24.02;10.52;;;;;;;4.73;44.66;98416.94;4984026;28;20065;-77
2021/04/10 00:49:30;;;;;;;23.02;11.20;;;;;;;4.69;45.08;98413.09;4981869;28;20030;-76
2021/04/10 00:51:55;;;;;;;26.88;12.57;;;;;;;4.67;44.86;98409.88;4980657;28;20075;-77
2021/04/10 00:54:21;;;;;;;40.00;16.95;;;;;;;4.65;44.62;98420.16;4985385;28;20041;-76
2021/04/10 00:56:46;;;;;;;35.75;15.20;;;;;;;4.59;45.23;98415.75;4987596;28;20433;-76
2021/04/10 00:59:12;;;;;;;39.50;19.02;;;;;;;4.55;45.11;98425.50;4962313;28;20046;-77
2021/04/10 01:01:38;;;;;;;53.38;22.90;;;;;;;4.51;45.28;98416.22;4977501;28;20030;-77
2021/04/10 01:04:06;;;;;;;52.78;22.23;;;;;;;4.47;45.97;98415.94;4980276;28;20079;-76
2021/04/10 01:06:32;;;;;;;52.15;23.73;;;;;;;4.52;46.11;98417.88;4986259;28;20084;-79
2021/04/10 01:08:58;;;;;;;57.17;24.48;;;;;;;4.55;45.36;98411.91;4986753;28;20097;-77
2021/04/10 01:11:35;;;;;;;62.30;27.33;;;;;;;4.61;45.14;98410.88;4987036;28;20075;-76
2021/04/10 01:14:16;;;;;;;52.85;24.27;;;;;;;4.65;45.50;98413.91;4985741;28;20026;-76
2021/04/10 01:17:08;;;;;;;42.20;19.98;;;;;;;4.72;45.46;98411.78;4982202;28;20034;-76
2021/04/10 01:19:48;;;;;;;35.25;16.08;;;;;;;4.85;45.42;98413.25;4985790;28;20127;-74
2021/04/10 01:22:30;;;;;;;39.88;18.13;;;;;;;4.95;45.49;98415.22;4978759;28;20057;-75
2021/04/10 01:25:06;;;;;;;32.83;16.10;;;;;;;5.02;45.24;98405.78;4979850;28;20618;-75
2021/04/10 01:27:41;;;;;;;41.42;18.95;;;;;;;5.10;45.67;98412.63;4986373;28;20070;-75
2021/04/10 01:30:10;;;;;;;38.22;17.30;;;;;;;5.16;45.40;98410.75;4985329;28;20095;-75
2021/04/10 01:32:59;;;;;;;31.35;14.75;;;;;;;5.21;45.66;98403.47;4985403;28;20137;-75
2021/04/10 01:35:29;;;;;;;29.30;13.98;;;;;;;5.28;45.96;98402.41;4990301;28;20042;-75
2021/04/10 01:38:01;;;;;;;28.73;12.88;;;;;;;5.32;45.13;98406.22;4985966;28;20744;-75
2021/04/10 01:40:32;;;;;;;24.45;12.10;;;;;;;5.35;45.46;98394.81;4981451;28;20030;-75
2021/04/10 01:42:59;;;;;;;30.35;12.48;;;;;;;5.39;45.71;98400.56;4976632;28;20078;-75
2021/04/10 01:45:26;;;;;;;26.00;12.65;;;;;;;5.43;45.84;98399.75;4977933;28;20681;-75
2021/04/10 01:47:54;;;;;;;24.38;12.20;;;;;;;5.48;45.19;98401.72;4986685;28;20568;-75
2021/04/10 01:50:20;;;;;;;23.38;11.85;;;;;;;5.52;45.43;98394.63;4986214;28;20528;-75
2021/04/10 01:52:46;;;;;;;24.17;12.00;;;;;;;5.57;45.54;98388.41;4985493;28;20581;-75
2021/04/10 01:55:13;;;;;;;26.55;12.18;;;;;;;5.63;45.09;98387.34;4985072;28;20046;-75
2021/04/10 01:57:39;;;;;;;22.77;11.32;;;;;;;5.68;45.67;98392.81;4986082;28;20386;-75
2021/04/10 02:00:06;;;;;;;21.67;11.38;;;;;;;5.72;45.86;98391.19;4986241;28;20119;-75
2021/04/10 02:02:36;;;;;;;22.08;11.75;;;;;;;5.74;45.42;98391.72;4976807;28;20037;-75
2021/04/10 02:05:05;;;;;;;25.98;11.60;;;;;;;5.75;45.61;98393.38;4975073;28;20545;-75
2021/04/10 02:07:32;;;;;;;27.73;11.90;;;;;;;5.79;45.31;98388.22;4983018;28;20459;-75
2021/04/10 02:09:58;;;;;;;25.70;11.25;;;;;;;5.81;46.16;98381.44;4986717;28;20068;-75
2021/04/10 02:12:26;;;;;;;23.40;10.35;;;;;;;5.81;45.63;98384.16;4984783;28;20119;-75
2021/04/10 02:14:51;;;;;;;21.75;10.35;;;;;;;5.81;46.19;98375.97;4984918;28;20034;-75
2021/04/10 02:17:18;;;;;;;21.30;10.05;;;;;;;5.80;45.87;98382.50;4984725;28;20029;-75
2021/04/10 02:19:45;;;;;;;19.75;9.40;;;;;;;5.82;46.13;98380.34;4986135;28;20030;-75
2021/04/10 02:22:12;;;;;;;21.73;10.45;;;;;;;5.85;46.29;98386.34;4983669;28;20532;-75
2021/04/10 02:24:37;;;;;;;20.17;9.40;;;;;;;5.89;46.53;98382.00;4976798;28;20676;-75
2021/04/10 02:27:04;;;;;;;20.23;9.80;;;;;;;5.89;45.78;98385.56;4976755;28;20031;-75
2021/04/10 02:29:30;;;;;;;19.42;9.00;;;;;;;5.89;46.24;98382.84;4983224;28;20030;-74
2021/04/10 02:32:28;;;;;;;19.17;9.27;;;;;;;5.88;46.34;98388.53;4986249;28;20022;-75
2021/04/10 02:35:02;;;;;;;16.90;8.50;;;;;;;5.86;46.42;98385.25;4985449;28;20030;-75
2021/04/10 02:37:32;;;;;;;16.40;8.30;;;;;;;5.80;46.68;98382.50;4985618;28;20122;-75
2021/04/10 02:39:59;;;;;;;18.83;8.80;;;;;;;5.76;46.73;98386.03;4984779;28;20057;-75
2021/04/10 02:42:27;;;;;;;19.02;8.90;;;;;;;5.74;46.55;98382.78;4985904;28;20114;-73
2021/04/10 02:44:56;;;;;;;19.15;9.20;;;;;;;5.71;46.31;98384.09;4977413;28;20036;-75
2021/04/10 02:47:25;;;;;;;20.52;9.75;;;;;;;5.73;46.72;98386.56;4975524;28;20045;-75
2021/04/10 02:49:53;;;;;;;20.33;9.35;;;;;;;5.71;47.10;98381.38;4981467;28;20039;-75
2021/04/10 02:52:32;;;;;;;18.83;8.55;;;;;;;5.71;47.29;98367.78;4986729;28;20628;-75
2021/04/10 02:55:01;;;;;;;18.83;7.90;;;;;;;5.71;46.66;98375.94;4984515;28;20034;-75
2021/04/10 02:57:29;;;;;;;20.92;8.75;;;;;;;5.73;46.95;98378.41;4985444;28;20081;-75
2021/04/10 02:59:59;;;;;;;18.75;9.20;;;;;;;5.74;47.25;98380.84;4982943;28;20058;-75
2021/04/10 03:02:24;;;;;;;;;;;;;;;5.73;46.90;98381.94;4979997;28;20050;-75
2021/04/10 03:04:51;;;;;;;21.35;9.93;;;;;;;5.73;46.62;98381.13;4980167;28;20009;-75
2021/04/10 03:07:17;;;;;;;16.42;8.73;;;;;;;5.69;47.01;98375.41;4975014;28;20038;-75
2021/04/10 03:09:45;;;;;;;23.73;10.15;;;;;;;5.66;47.28;98374.03;4975809;28;20585;-75
2021/04/10 03:12:14;;;;;;;20.40;10.13;;;;;;;5.62;47.35;98378.38;4983634;28;20383;-75
2021/04/10 03:14:41;;;;;;;19.60;9.63;;;;;;;5.60;47.65;98380.53;4984295;28;20490;-75
2021/04/10 03:17:19;;;;;;;21.75;9.40;;;;;;;5.56;47.23;98375.91;4984239;28;20076;-75
2021/04/10 03:19:45;;;;;;;19.23;9.95;;;;;;;5.53;47.94;98379.13;4984875;28;20031;-75
2021/04/10 03:22:13;;;;;;;22.02;10.18;;;;;;;5.49;48.04;98374.22;4983959;28;20094;-75
2021/04/10 03:24:39;;;;;;;21.45;10.25;;;;;;;5.46;47.76;98373.94;4983127;28;20039;-74
2021/04/10 03:27:05;;;;;;;20.08;9.65;;;;;;;5.43;47.76;98377.19;4975442;28;20543;-74
2021/04/10 03:29:31;;;;;;;19.17;9.25;;;;;;;5.39;47.52;98376.09;4965587;28;20026;-75
2021/04/10 03:31:58;;;;;;;17.27;9.30;;;;;;;5.38;47.64;98374.44;4981140;28;20215;-74
2021/04/10 03:34:24;;;;;;;16.58;9.02;;;;;;;5.38;48.31;98377.16;4983270;28;20034;-75
2021/04/10 03:36:51;;;;;;;15.13;8.35;;;;;;;5.36;48.22;98380.13;4984059;28;20026;-74
2021/04/10 03:39:17;;;;;;;13.25;8.10;;;;;;;5.37;48.09;98379.06;4984595;28;20038;-74
2021/04/10 03:41:43;;;;;;;16.70;8.23;;;;;;;5.37;48.07;98376.34;4982919;28;20820;-74
2021/04/10 03:44:08;;;;;;;15.63;8.23;;;;;;;5.39;48.05;98376.88;4983950;28;20427;-74
2021/04/10 03:46:38;;;;;;;18.00;8.82;;;;;;;5.42;48.26;98389.16;4967144;28;20783;-74
2021/04/10 03:49:05;;;;;;;24.97;10.33;;;;;;;5.40;47.76;98385.88;4976942;28;20044;-74
2021/04/10 03:51:30;;;;;;;24.23;12.20;;;;;;;5.40;48.12;98388.59;4972634;28;20297;-74
2021/04/10 03:53:56;;;;;;;28.15;15.18;;;;;;;5.38;47.50;98379.88;4983698;28;20034;-75
2021/04/10 03:56:21;;;;;;;41.17;18.60;;;;;;;5.34;48.47;98379.56;4984032;28;20150;-74
2021/04/10 03:58:48;;;;;;;33.22;18.15;;;;;;;5.28;48.10;98384.19;4982569;28;20477;-74
2021/04/10 04:01:13;;;;;;;28.60;14.88;;;;;;;5.22;48.28;98379.78;4991594;28;20038;-75
2021/04/10 04:03:38;;;;;;;31.40;16.58;;;;;;;5.14;48.27;98383.00;5006616;28;20404;-75
2021/04/10 04:06:04;;;;;;;28.77;14.35;;;;;;;5.06;48.83;98382.44;5006057;28;20050;-75
2021/04/10 04:08:29;;;;;;;27.38;14.57;;;;;;;4.99;48.19;98383.72;4991075;28;20552;-75
2021/04/10 04:10:55;;;;;;;19.23;10.52;;;;;;;4.94;48.84;98391.84;5008754;28;20026;-75
2021/04/10 04:13:20;;;;;;;18.38;9.43;;;;;;;4.87;49.48;98390.19;4990315;28;20034;-75
2021/04/10 04:15:45;;;;;;;18.92;10.05;;;;;;;4.85;49.54;98399.66;5008536;28;20027;-75
2021/04/10 04:18:11;;;;;;;16.58;10.23;;;;;;;4.84;48.67;98398.84;5006867;28;20026;-74
2021/04/10 04:20:36;;;;;;;18.92;11.18;;;;;;;4.87;48.80;98400.22;5008496;28;20060;-75
2021/04/10 04:23:01;;;;;;;21.20;10.90;;;;;;;4.90;49.14;98397.78;5006141;28;20503;-75
2021/04/10 04:25:27;;;;;;;25.67;12.73;;;;;;;4.91;49.52;98396.72;5007068;28;20022;-75
2021/04/10 04:27:52;;;;;;;23.80;11.85;;;;;;;4.92;49.97;98392.09;5004465;28;20516;-74
2021/04/10 04:30:19;;;;;;;23.45;10.32;;;;;;;4.92;50.65;98389.38;5006399;28;20014;-74
2021/04/10 04:32:44;;;;;;;30.95;15.40;;;;;;;4.87;49.71;98401.06;5004711;28;20478;-74
2021/04/10 04:35:10;;;;;;;42.60;20.77;;;;;;;4.89;50.89;98400.78;5008232;28;20029;-75
2021/04/10 04:37:35;;;;;;;24.92;14.23;;;;;;;4.88;50.55;98399.16;5008385;28;20026;-74
2021/04/10 04:40:01;;;;;;;21.65;11.18;;;;;;;4.90;50.61;98397.00;5004204;28;20028;-74
2021/04/10 04:42:26;;;;;;;19.58;10.23;;;;;;;4.96;50.15;98400.53;5008083;28;20470;-75
2021/04/10 04:44:51;;;;;;;21.60;9.45;;;;;;;5.01;50.93;98401.44;5006449;28;20026;-75
2021/04/10 04:47:17;;;;;;;19.40;9.40;;;;;;;5.08;50.67;98403.91;5008380;28;20075;-75
2021/04/10 04:49:42;;;;;;;19.73;9.65;;;;;;;5.13;50.35;98403.09;5005877;28;20029;-75
2021/04/10 04:52:08;;;;;;;17.92;10.27;;;;;;;5.18;50.61;98409.41;5006078;28;20034;-75
2021/04/10 04:54:33;;;;;;;17.42;9.57;;;;;;;5.25;50.31;98406.47;5008332;28;20474;-75
2021/04/10 04:56:58;;;;;;;20.05;8.80;;;;;;;5.31;50.83;98408.13;5006858;28;20104;-74
2021/04/10 04:59:24;;;;;;;18.67;9.68;;;;;;;5.37;50.32;98414.41;4987480;28;20034;-75
2021/04/10 05:01:49;;;;;;;20.88;10.90;;;;;;;5.43;51.13;98409.84;5006335;28;20022;-74
2021/04/10 05:04:15;;;;;;;19.58;10.82;;;;;;;5.49;50.48;98408.78;5007256;28;20034;-75
2021/04/10 05:06:40;;;;;;;20.55;11.25;;;;;;;5.56;50.60;98403.09;5007085;28;20049;-75
2021/04/10 05:09:06;;;;;;;18.70;10.98;;;;;;;5.61;50.22;98406.66;5008089;28;20026;-75
2021/04/10 05:11:33;;;;;;;20.13;11.07;;;;;;;5.69;50.61;98407.22;5007490;28;20034;-75
2021/04/10 05:13:58;;;;;;;20.48;11.43;;;;;;;5.73;50.75;98411.88;4987692;28;20036;-75
2021/04/10 05:16:24;;;;;;;24.33;12.93;;;;;;;5.80;50.47;98420.63;5004504;28;20038;-75
2021/04/10 05:18:49;;;;;;;32.75;16.95;;;;;;;5.86;50.86;98424.19;5005625;28;20030;-75
2021/04/10 05:21:14;;;;;;;50.80;22.55;;;;;;;5.93;50.18;98423.94;5004953;28;20068;-74
2021/04/10 05:23:40;;;;;;;23.55;11.60;;;;;;;5.98;50.58;98434.84;4984859;28;20038;-75
2021/04/10 05:26:05;;;;;;;36.25;16.60;;;;;;;6.04;50.60;98435.72;4989603;28;20030;-74
2021/04/10 05:28:31;;;;;;;52.83;21.95;;;;;;;6.09;51.07;98428.41;4990827;28;20030;-74
2021/04/10 05:31:01;;;;;;;57.80;24.30;;;;;;;6.16;50.73;98427.28;5004476;28;20041;-74
2021/04/10 05:33:26;;;;;;;43.85;18.23;;;;;;;6.23;50.00;98434.16;5008700;28;20101;-74
2021/04/10 05:35:52;;;;;;;47.40;19.10;;;;;;;6.32;51.17;98426.25;4989079;28;20169;-74
2021/04/10 05:38:17;;;;;;;33.35;14.70;;;;;;;6.40;50.87;98431.19;4991373;28;20054;-75
2021/04/10 05:40:42;;;;;;;40.17;17.20;;;;;;;6.51;50.81;98442.13;4992639;28;20466;-75
2021/04/10 05:43:08;;;;;;;34.85;15.50;;;;;;;6.61;50.34;98441.31;4992604;28;20114;-74
2021/04/10 05:45:33;;;;;;;21.13;11.13;;;;;;;6.69;50.58;98435.31;4997716;28;20484;-75
2021/04/10 05:47:58;;;;;;;23.17;10.07;;;;;;;6.76;50.23;98444.03;5011759;28;20018;-74
2021/04/10 05:50:24;;;;;;;23.48;11.52;;;;;;;6.85;50.15;98436.94;5011920;28;20022;-74
2021/04/10 05:52:49;;;;;;;27.80;10.93;;;;;;;6.94;50.50;98452.78;5011380;28;20033;-74
2021/04/10 05:55:15;;;;;;;19.40;9.93;;;;;;;7.01;49.82;98442.41;5003421;28;20030;-75
2021/04/10 05:57:40;;;;;;;16.88;8.30;;;;;;;7.09;49.67;98449.22;5004650;28;20052;-75
2021/04/10 06:00:06;;;;;;;14.02;6.68;;;;;;;7.19;49.88;98454.69;4992152;28;20054;-74
2021/04/10 06:02:32;;;;;;;17.42;9.38;;;;;;;7.29;49.88;98453.84;4993194;28;20037;-75
2021/04/10 06:04:57;;;;;;;23.80;9.93;;;;;;;7.36;49.48;98459.00;4992029;28;20042;-75
2021/04/10 06:07:23;;;;;;;23.52;10.32;;;;;;;7.47;49.30;98462.56;4992285;28;20649;-75
2021/04/10 06:09:49;;;;;;;17.50;7.78;;;;;;;7.55;49.15;98468.25;4993371;28;20048;-75
2021/04/10 06:12:14;;;;;;;22.85;10.68;;;;;;;7.64;48.99;98475.91;4991940;28;20486;-73
2021/04/10 06:14:39;;;;;;;21.42;9.18;;;;;;;7.72;48.64;98464.41;4995820;28;20041;-73
2021/04/10 06:17:05;;;;;;;29.48;12.95;;;;;;;7.83;48.85;98463.25;4992645;28;20027;-75
2021/04/10 06:19:30;;;;;;;29.00;14.15;;;;;;;7.95;48.77;98459.41;4993112;28;20041;-75
2021/04/10 06:21:55;;;;;;;36.85;17.38;;;;;;;8.07;48.64;98459.91;4991864;28;20026;-75
2021/04/10 06:24:21;;;;;;;30.60;15.48;;;;;;;8.20;48.50;98462.03;5007513;28;20029;-75
2021/04/10 06:26:46;;;;;;;26.25;12.82;;;;;;;8.32;48.57;98461.72;5011252;28;20037;-75
2021/04/10 06:29:13;;;;;;;17.17;8.13;;;;;;;8.46;47.94;98458.34;5009407;28;20032;-75
2021/04/10 06:31:40;;;;;;;23.33;9.73;;;;;;;8.58;47.86;98449.81;5005365;28;20027;-75
2021/04/10 06:34:05;;;;;;;21.67;9.70;;;;;;;8.68;47.66;98451.69;4991467;28;20026;-75
2021/04/10 06:36:31;;;;;;;19.98;8.32;;;;;;;8.79;47.14;98450.50;5010262;28;20078;-76
2021/04/10 06:38:56;;;;;;;23.73;10.77;;;;;;;8.89;47.00;98447.69;5009149;28;20435;-75
2021/04/10 06:41:23;;;;;;;22.95;12.93;;;;;;;9.01;47.09;98449.25;5010925;28;20030;-76
2021/04/10 06:43:49;;;;;;;15.57;6.63;;;;;;;9.14;46.90;98455.97;5007486;28;20033;-75
2021/04/10 06:46:14;;;;;;;14.80;6.28;;;;;;;9.23;46.25;98457.81;5010380;28;20057;-74
2021/04/10 06:48:42;;;;;;;21.42;10.00;;;;;;;9.33;46.59;98448.72;5010558;28;20167;-75
2021/04/10 06:51:10;;;;;;;17.10;7.57;;;;;;;9.45;45.40;98450.22;5009165;28;20030;-75
2021/04/10 06:53:47;;;;;;;19.15;7.63;;;;;;;9.51;45.20;98451.81;4992571;28;20485;-75
2021/04/10 06:56:18;;;;;;;15.60;7.70;;;;;;;9.57;44.98;98456.13;5010663;28;20026;-73
2021/04/10 06:59:08;;;;;;;25.13;10.57;;;;;;;9.64;44.07;98453.03;4998870;28;20030;-75
2021/04/10 07:01:34;;;;;;;28.77;11.50;;;;;;;9.71;44.17;98458.19;5006704;28;20040;-75
2021/04/10 07:04:00;;;;;;;24.60;9.35;;;;;;;9.78;44.74;98454.00;4993024;28;20036;-74
2021/04/10 07:06:26;;;;;;;17.67;7.38;;;;;;;9.86;44.01;98454.47;4990961;28;20069;-75
2021/04/10 07:08:53;;;;;;;36.40;14.05;;;;;;;9.94;44.38;98451.88;4991352;28;20035;-75
2021/04/10 07:11:19;;;;;;;30.70;11.85;;;;;;;10.04;44.21;98452.88;4991202;28;20479;-75
2021/04/10 07:13:44;;;;;;;27.00;10.57;;;;;;;10.12;44.10;98463.19;4992069;28;20045;-75
2021/04/10 07:16:10;;;;;;;30.65;11.88;;;;;;;10.23;44.15;98458.41;4998450;28;20057;-75
2021/04/10 07:18:36;;;;;;;21.45;9.35;;;;;;;10.36;43.59;98468.66;5003880;28;20034;-76
2021/04/10 07:21:21;;;;;;;19.60;9.30;;;;;;;10.47;43.06;98463.03;4989905;28;20018;-76
2021/04/10 07:23:49;;;;;;;25.90;9.82;;;;;;;10.56;42.76;98458.53;4990125;28;20083;-76
2021/04/10 07:26:18;;;;;;;17.23;8.13;;;;;;;10.62;42.17;98462.81;4975996;28;20389;-75
2021/04/10 07:28:44;;;;;;;18.77;8.35;;;;;;;10.69;43.00;98462.44;5007795;28;20036;-76
2021/04/10 07:31:12;;;;;;;21.35;10.23;;;;;;;10.76;42.14;98473.06;5010005;28;20068;-76
2021/04/10 07:33:38;;;;;;;20.58;8.75;;;;;;;10.78;42.49;98462.63;4991234;28;20030;-76
2021/04/10 07:36:13;;;;;;;23.33;9.82;;;;;;;10.85;42.59;98469.34;4992297;28;20133;-76
2021/04/10 07:38:41;;;;;;;17.20;8.32;;;;;;;10.91;42.14;98467.31;4974229;28;20026;-76
2021/04/10 07:41:12;;;;;;;20.58;9.38;;;;;;;10.98;42.14;98464.22;4991832;28;20030;-76
2021/04/10 07:43:39;;;;;;;22.42;8.35;;;;;;;11.06;42.76;98465.47;4996423;28;20499;-75
2021/04/10 07:46:11;;;;;;;19.20;9.18;;;;;;;11.19;41.94;98474.84;4992040;28;20132;-75
2021/04/10 07:48:37;;;;;;;14.23;7.18;;;;;;;11.27;42.37;98466.75;5010280;28;20026;-76
2021/04/10 07:51:03;;;;;;;21.45;7.88;;;;;;;11.35;41.92;98467.16;5010524;28;20481;-76
2021/04/10 07:53:30;;;;;;;17.50;8.77;;;;;;;11.44;41.72;98468.13;5008790;28;20030;-75
2021/04/10 07:55:58;;;;;;;19.40;8.40;;;;;;;11.51;41.46;98470.47;5010433;28;20458;-75
2021/04/10 07:58:30;;;;;;;17.67;7.35;;;;;;;11.55;41.74;98466.00;5009097;28;20038;-75
2021/04/10 08:00:57;;;;;;;16.38;7.20;;;;;;;11.59;40.78;98465.09;5003878;28;20030;-75
2021/04/10 08:03:31;;;;;;;15.55;7.78;;;;;;;11.64;40.59;98466.09;4994530;28;20081;-75
2021/04/10 08:06:11;;;;;;;18.33;9.10;;;;;;;11.71;41.68;98461.84;5002323;28;20050;-75
2021/04/10 08:08:45;;;;;;;15.65;8.38;;;;;;;11.81;41.00;98460.84;5009279;28;20113;-75
2021/04/10 08:11:11;;;;;;;15.82;8.18;;;;;;;11.89;41.49;98460.13;5010037;28;20096;-75
2021/04/10 08:13:37;;;;;;;11.90;6.22;;;;;;;11.95;40.13;98457.28;5010219;28;20117;-75
2021/04/10 08:16:12;;;;;;;14.57;7.75;;;;;;;11.97;40.61;98463.31;5008546;28;20450;-75
2021/04/10 08:18:59;;;;;;;17.15;6.65;;;;;;;12.00;40.20;98460.78;5003460;28;20164;-75
2021/04/10 08:21:31;;;;;;;13.60;6.45;;;;;;;12.05;40.03;98457.94;4991118;28;20374;-75
2021/04/10 08:23:56;;;;;;;19.00;7.13;;;;;;;12.10;40.44;98462.50;4994136;28;20163;-75
2021/04/10 08:26:23;;;;;;;13.05;5.72;;;;;;;12.19;39.28;98457.13;4990624;28;20520;-76
2021/04/10 08:28:48;;;;;;;15.38;6.53;;;;;;;12.25;39.30;98460.56;4991580;28;20121;-75
2021/04/10 08:31:15;;;;;;;12.90;6.35;;;;;;;12.36;40.14;98453.72;4990453;28;20058;-75
2021/04/10 08:33:40;;;;;;;15.05;6.50;;;;;;;12.46;39.80;98461.72;4991476;28;20501;-76
2021/04/10 08:36:10;;;;;;;14.00;6.15;;;;;;;12.57;38.86;98458.75;4990500;28;20031;-75
2021/04/10 08:38:40;;;;;;;14.75;7.07;;;;;;;12.60;38.43;98458.16;4972804;28;20073;-75
2021/04/10 08:41:08;;;;;;;15.50;8.68;;;;;;;12.62;39.24;98456.72;4990526;28;20026;-74
2021/04/10 08:43:46;;;;;;;14.82;7.82;;;;;;;12.72;39.16;98458.44;4991403;28;20461;-74
2021/04/10 08:46:13;;;;;;;22.98;8.73;;;;;;;12.83;39.61;98464.50;4990486;28;20062;-75
2021/04/10 08:48:39;;;;;;;14.45;6.53;;;;;;;12.94;39.46;98459.56;4990257;28;20056;-75
2021/04/10 08:51:07;;;;;;;17.63;7.43;;;;;;;13.06;39.15;98446.06;4990217;28;20034;-76
2021/04/10 08:53:38;;;;;;;13.95;6.47;;;;;;;13.16;38.69;98453.25;4991249;28;20087;-76
2021/04/10 08:56:08;;;;;;;15.15;5.80;;;;;;;13.33;38.07;98449.78;4990180;28;20390;-75
2021/04/10 08:58:35;;;;;;;15.10;6.00;;;;;;;13.48;38.01;98443.09;5000098;28;20113;-76
2021/04/10 09:01:04;;;;;;;15.00;5.80;;;;;;;13.61;37.83;98444.16;4973604;28;20153;-76
2021/04/10 09:03:49;;;;;;;10.87;5.40;;;;;;;13.72;36.83;98443.84;4989249;28;20026;-76
2021/04/10 09:06:30;;;;;;;13.35;6.15;;;;;;;13.76;36.74;98439.34;5008930;28;20102;-74
2021/04/10 09:09:11;;;;;;;20.20;8.63;;;;;;;13.89;36.77;98440.34;5008575;28;20128;-75
2021/04/10 09:11:40;;;;;;;17.52;9.25;;;;;;;13.95;36.33;98445.44;5010267;28;20367;-74
2021/04/10 09:14:06;;;;;;;12.15;5.60;;;;;;;13.98;35.98;98441.22;5010898;28;20481;-74
2021/04/10 09:16:47;;;;;;;11.90;5.50;;;;;;;13.99;36.54;98443.66;5011857;28;20029;-74
2021/04/10 09:19:19;;;;;;;12.40;6.07;;;;;;;14.06;36.66;98447.91;5012359;28;20053;-74
2021/04/10 09:21:46;;;;;;;19.92;13.32;;;;;;;14.06;36.04;98447.91;5002937;28;20033;-75
2021/04/10 09:24:36;;;;;;;11.48;5.53;;;;;;;14.08;35.95;98451.13;5004870;28;20030;-75
2021/04/10 09:27:28;;;;;;;14.43;6.70;;;;;;;14.11;36.49;98447.72;4994874;28;20528;-75
2021/04/10 09:30:04;;;;;;;16.17;6.65;;;;;;;14.15;36.28;98443.19;5012595;28;20406;-75
2021/04/10 09:32:38;;;;;;;16.33;5.63;;;;;;;14.21;36.50;98439.16;5011074;28;20034;-75
2021/04/10 09:35:10;;;;;;;15.73;6.70;;;;;;;14.26;36.83;98444.53;5012150;28;20027;-75
2021/04/10 09:37:35;;;;;;;10.18;5.50;;;;;;;14.34;35.10;98444.88;5012612;28;20045;-74
2021/04/10 09:40:18;;;;;;;11.40;5.43;;;;;;;14.36;35.44;98443.41;5004509;28;20033;-74
2021/04/10 09:43:03;;;;;;;10.00;5.63;;;;;;;14.42;35.84;98439.38;4994962;28;20489;-74
2021/04/10 09:45:31;;;;;;;8.98;5.43;;;;;;;14.52;36.07;98440.19;5013479;28;20042;-75
2021/04/10 09:47:57;;;;;;;9.80;4.80;;;;;;;14.67;35.25;98433.38;4993938;28;20186;-74
2021/04/10 09:50:38;;;;;;;9.70;4.65;;;;;;;14.76;34.62;98434.25;5012437;28;20026;-74
2021/04/10 09:53:16;;;;;;;11.48;5.78;;;;;;;14.89;35.39;98424.16;5012428;28;20041;-74
2021/04/10 09:55:50;;;;;;;59.03;42.78;;;;;;;14.99;35.55;98436.81;4993798;28;20082;-74
2021/04/10 09:58:20;;;;;;;7.97;4.60;;;;;;;15.13;33.01;98431.09;5011724;28;20422;-73
2021/04/10 10:00:47;;;;;;;10.88;6.68;;;;;;;15.21;33.73;98433.06;5008286;28;20053;-74
2021/04/10 10:03:23;;;;;;;13.93;6.30;;;;;;;15.32;33.83;98439.03;5010741;28;20078;-73
2021/04/10 10:05:52;;;;;;;47.67;25.30;;;;;;;15.43;33.55;98442.28;5005665;28;20061;-74
2021/04/10 10:08:23;;;;;;;18.75;8.27;;;;;;;15.46;33.99;98427.81;5012241;28;20022;-74
2021/04/10 10:10:55;;;;;;;15.18;8.77;;;;;;;15.55;34.07;98423.03;5011966;28;20030;-73
2021/04/10 10:13:28;;;;;;;8.45;4.57;;;;;;;15.71;32.40;98433.56;5011729;28;20029;-73
2021/04/10 10:15:54;;;;;;;8.23;4.53;;;;;;;15.73;31.23;98426.56;5012037;28;20048;-73
2021/04/10 10:18:21;;;;;;;14.65;7.15;;;;;;;15.80;31.96;98439.06;5012141;28;20030;-74
2021/04/10 10:21:03;;;;;;;7.30;4.30;;;;;;;15.84;31.37;98427.03;5010657;28;20018;-72
2021/04/10 10:23:36;;;;;;;10.30;5.07;;;;;;;15.91;31.28;98430.09;5010234;28;20030;-73
2021/04/10 10:26:11;;;;;;;9.20;6.00;;;;;;;16.02;31.36;98424.19;5011856;28;20034;-73
2021/04/10 10:28:40;;;;;;;9.18;4.53;;;;;;;16.12;30.25;98439.59;5011865;28;20482;-73
2021/04/10 10:31:15;;;;;;;10.93;4.90;;;;;;;16.16;30.00;98427.53;5012112;28;20041;-73
2021/04/10 10:33:42;;;;;;;6.30;3.92;;;;;;;16.23;30.32;98435.28;5011889;28;20113;-72
2021/04/10 10:36:08;;;;;;;5.93;3.50;;;;;;;16.29;30.09;98431.19;5010989;28;20026;-73
2021/04/10 10:38:40;;;;;;;7.70;4.38;;;;;;;16.38;30.19;98431.13;5011507;28;20074;-73
2021/04/10 10:41:08;;;;;;;7.88;4.80;;;;;;;16.45;30.11;98434.19;5011537;28;20117;-74
2021/04/10 10:43:34;;;;;;;7.18;4.18;;;;;;;16.54;29.60;98444.38;5011110;28;20037;-73
2021/04/10 10:46:02;;;;;;;5.38;4.00;;;;;;;16.55;29.05;98444.03;5008983;28;20040;-74
2021/04/10 10:48:40;;;;;;;6.18;3.78;;;;;;;16.60;29.23;98431.97;4989302;28;20033;-74
2021/04/10 10:51:12;;;;;;;8.20;4.32;;;;;;;16.69;29.70;98431.91;5010692;28;20090;-75
2021/04/10 10:53:43;;;;;;;7.20;4.22;;;;;;;16.75;29.51;98438.84;5010741;28;20049;-74
2021/04/10 10:56:28;;;;;;;7.20;3.95;;;;;;;16.89;30.11;98435.81;5008284;28;20018;-75
2021/04/10 10:58:58;;;;;;;6.47;3.67;;;;;;;17.04;28.90;98440.75;5008433;28;20501;-75
2021/04/10 11:01:33;;;;;;;5.05;3.38;;;;;;;17.12;28.49;98439.06;5011447;28;20069;-75
2021/04/10 11:04:17;;;;;;;6.97;3.25;;;;;;;17.18;27.62;98429.38;5006259;28;20435;-75
2021/04/10 11:06:47;;;;;;;4.88;2.63;;;;;;;17.17;27.96;98443.56;5055233;28;20149;-74
2021/04/10 11:09:18;;;;;;;11.80;4.47;;;;;;;17.14;28.83;98442.28;5037619;28;20503;-72
2021/04/10 11:11:46;;;;;;;5.68;3.15;;;;;;;17.20;27.77;98451.19;5006460;28;20163;-73
2021/04/10 11:14:18;;;;;;;7.15;3.53;;;;;;;17.19;27.86;98442.09;5009802;28;20033;-73
2021/04/10 11:16:45;;;;;;;8.20;3.90;;;;;;;17.27;28.55;98437.59;5010273;28;20482;-72
2021/04/10 11:19:11;;;;;;;8.15;3.58;;;;;;;17.42;28.61;98447.22;5000994;28;20466;-72
2021/04/10 11:21:37;;;;;;;5.78;3.50;;;;;;;17.55;29.57;98437.81;4991080;28;20038;-72
2021/04/10 11:24:12;;;;;;;6.28;3.47;;;;;;;17.65;28.89;98425.44;4991010;28;20034;-73
2021/04/10 11:26:55;;;;;;;5.82;3.90;;;;;;;17.72;28.31;98436.00;4990746;28;20030;-76
2021/04/10 11:29:24;;;;;;;6.97;3.22;;;;;;;17.74;28.06;98425.34;5005600;28;20057;-76
2021/04/10 11:32:19;;;;;;;6.65;3.90;;;;;;;17.89;29.23;98426.63;5006305;28;20496;-76
2021/04/10 11:34:47;;;;;;;5.28;3.35;;;;;;;18.05;27.87;98424.00;4997120;28;20030;-76
2021/04/10 11:37:16;;;;;;;7.43;3.20;;;;;;;18.13;27.64;98428.63;4990584;28;20030;-76